Time;durP1;ratioP1;P1;durP2;ratioP2;P2;SDS_P1;SDS_P2;PMS_P1;PMS_P2;Temp;Humidity;BMP_temperature;BMP_pressure;BME280_temperature;BME280_humidity;BME280_pressure;Samples;Min_cycle;Max_cycle;Signal;HPM_P1;HPM_P2
2023/07/17 00:01:47;;;;;;;7.35;2.13;;;13.50;99.90;;;;;;5048322;28;20056;-55
2023/07/17 00:04:15;;;;;;;9.55;3.55;;;13.50;99.90;;;;;;5051008;28;20091;-55
2023/07/17 00:06:43;;;;;;;10.40;2.97;;;13.60;99.90;;;;;;5049986;28;20071;-55
2023/07/17 00:09:11;;;;;;;9.65;2.50;;;13.60;99.90;;;;;;5048883;28;20135;-54
2023/07/17 00:11:38;;;;;;;6.38;2.35;;;13.60;99.90;;;;;;5050741;28;20416;-55
2023/07/17 00:14:06;;;;;;;7.53;2.42;;;13.60;99.90;;;;;;5046595;28;20396;-56
2023/07/17 00:16:34;;;;;;;14.43;2.60;;;13.70;99.90;;;;;;5050821;28;20485;-54
2023/07/17 00:19:02;;;;;;;7.70;2.20;;;13.70;99.90;;;;;;5051998;28;20492;-58
2023/07/17 00:21:30;;;;;;;7.90;2.35;;;13.70;99.90;;;;;;5041321;28;20792;-55
2023/07/17 00:23:58;;;;;;;8.68;2.17;;;13.80;99.90;;;;;;5045780;28;20049;-56
2023/07/17 00:26:25;;;;;;;9.40;2.10;;;13.70;99.90;;;;;;5046355;28;20484;-55
2023/07/17 00:29:15;;;;;;;6.05;2.10;;;13.80;99.90;;;;;;5045709;28;20052;-55
2023/07/17 00:31:43;;;;;;;;;;;13.80;99.90;;;;;;5043531;28;20424;-55
2023/07/17 00:34:11;;;;;;;4.65;1.83;;;13.70;99.90;;;;;;5042240;28;19939;-55
2023/07/17 00:36:38;;;;;;;8.02;2.17;;;13.70;99.90;;;;;;5046131;28;20379;-54
2023/07/17 00:39:06;;;;;;;7.05;2.40;;;13.70;99.90;;;;;;5048014;28;20040;-55
2023/07/17 00:41:34;;;;;;;5.70;1.80;;;13.70;99.90;;;;;;5046041;28;20060;-54
2023/07/17 00:44:03;;;;;;;5.22;1.90;;;13.70;99.90;;;;;;5046971;28;20060;-54
2023/07/17 00:46:33;;;;;;;6.73;1.83;;;13.70;99.90;;;;;;5038554;28;20048;-54
2023/07/17 00:49:03;;;;;;;5.97;2.17;;;13.70;99.90;;;;;;5046019;28;20297;-56
2023/07/17 00:51:32;;;;;;;9.93;2.22;;;13.70;99.90;;;;;;5041150;28;20049;-54
2023/07/17 00:54:00;;;;;;;9.57;2.40;;;13.70;99.90;;;;;;5039811;28;20046;-54
2023/07/17 00:56:28;;;;;;;9.38;2.72;;;13.70;99.90;;;;;;5044281;28;20419;-55
2023/07/17 00:58:57;;;;;;;7.20;2.00;;;13.70;99.90;;;;;;5042828;28;20041;-55
2023/07/17 01:01:26;;;;;;;9.13;1.92;;;13.70;99.90;;;;;;5036276;28;20048;-56
2023/07/17 01:03:55;;;;;;;8.07;2.22;;;13.70;99.90;;;;;;5042233;28;20051;-54
2023/07/17 01:06:26;;;;;;;8.13;2.43;;;13.60;99.90;;;;;;5045857;28;20053;-55
2023/07/17 01:08:54;;;;;;;8.80;2.42;;;13.60;99.90;;;;;;5044369;28;20052;-54
2023/07/17 01:11:22;;;;;;;9.95;2.13;;;13.50;99.90;;;;;;5044149;28;20055;-56
2023/07/17 01:13:51;;;;;;;12.68;2.22;;;13.40;99.90;;;;;;5045089;28;20049;-57
2023/07/17 01:16:27;;;;;;;16.08;3.33;;;13.40;99.90;;;;;;5044609;28;20049;-56
2023/07/17 01:18:55;;;;;;;11.10;2.60;;;13.30;99.90;;;;;;5039630;28;20417;-54
2023/07/17 01:21:27;;;;;;;9.15;2.38;;;13.20;99.90;;;;;;5039919;28;20048;-54
2023/07/17 01:23:56;;;;;;;7.78;2.10;;;13.20;99.90;;;;;;5054809;28;20392;-56
2023/07/17 01:26:24;;;;;;;5.15;2.55;;;13.10;99.90;;;;;;5040782;28;20037;-54
2023/07/17 01:28:52;;;;;;;11.00;2.50;;;13.10;99.90;;;;;;5045997;28;20053;-54
2023/07/17 01:31:20;;;;;;;9.85;2.50;;;13.00;99.90;;;;;;5041938;28;20052;-54
2023/07/17 01:33:49;;;;;;;6.53;2.70;;;13.00;99.90;;;;;;5045869;28;20397;-54
2023/07/17 01:36:17;;;;;;;8.32;2.80;;;13.00;99.90;;;;;;5044180;28;20045;-55
2023/07/17 01:38:45;;;;;;;5.40;2.40;;;13.00;99.90;;;;;;5043877;28;20049;-55
2023/07/17 01:41:12;;;;;;;8.23;2.47;;;13.10;99.90;;;;;;5046277;28;20056;-54
2023/07/17 01:43:40;;;;;;;10.60;3.10;;;13.10;99.90;;;;;;5046777;28;20374;-54
2023/07/17 01:46:09;;;;;;;5.97;2.57;;;13.10;99.90;;;;;;5027942;28;20056;-53
2023/07/17 01:48:37;;;;;;;6.07;2.88;;;13.10;99.90;;;;;;5042192;28;20298;-54
2023/07/17 01:51:05;;;;;;;10.68;2.97;;;13.10;99.90;;;;;;5041522;28;20052;-54
2023/07/17 01:53:33;;;;;;;10.05;2.50;;;13.10;99.90;;;;;;5049997;28;20048;-54
2023/07/17 01:56:01;;;;;;;10.13;2.90;;;13.10;99.90;;;;;;5049460;28;20040;-55
2023/07/17 01:58:29;;;;;;;11.13;2.72;;;13.10;99.90;;;;;;5050848;28;20496;-55
2023/07/17 02:00:57;;;;;;;6.60;2.22;;;13.20;99.90;;;;;;5045821;28;20531;-55
2023/07/17 02:03:26;;;;;;;10.77;3.28;;;13.10;99.90;;;;;;5052513;28;20049;-54
2023/07/17 02:05:54;;;;;;;10.60;3.25;;;13.10;99.90;;;;;;5051067;28;20043;-55
2023/07/17 02:08:22;;;;;;;8.40;3.15;;;13.10;99.90;;;;;;5051622;28;20044;-55
2023/07/17 02:10:52;;;;;;;9.25;3.22;;;13.00;99.90;;;;;;5051966;28;20049;-54
2023/07/17 02:13:20;;;;;;;5.55;2.70;;;13.00;99.90;;;;;;5052107;28;20041;-54
2023/07/17 02:15:47;;;;;;;11.50;2.78;;;13.00;99.90;;;;;;5049134;28;20071;-54
2023/07/17 02:18:15;;;;;;;8.10;2.88;;;13.00;99.90;;;;;;5052382;28;20041;-54
2023/07/17 02:20:44;;;;;;;6.88;2.83;;;13.00;99.90;;;;;;5051086;28;20075;-54
2023/07/17 02:23:12;;;;;;;10.77;2.95;;;12.90;99.90;;;;;;5050468;28;20041;-54
2023/07/17 02:25:40;;;;;;;8.60;2.95;;;12.90;99.90;;;;;;5050456;28;20051;-54
2023/07/17 02:28:08;;;;;;;12.38;3.08;;;12.90;99.90;;;;;;5021444;28;20049;-55
2023/07/17 02:30:36;;;;;;;11.63;3.20;;;12.90;99.90;;;;;;5046859;28;20041;-59
2023/07/17 02:33:04;;;;;;;10.13;3.20;;;12.90;99.90;;;;;;5045724;28;20049;-59
2023/07/17 02:35:31;;;;;;;10.57;3.05;;;12.90;99.90;;;;;;5049954;28;20052;-58
2023/07/17 02:37:59;;;;;;;13.05;2.88;;;12.90;99.90;;;;;;5050620;28;20044;-60
2023/07/17 02:40:27;;;;;;;8.68;3.13;;;12.90;99.90;;;;;;5050660;28;20052;-58
2023/07/17 02:42:55;;;;;;;8.18;3.15;;;12.80;99.90;;;;;;5051846;28;20041;-58
2023/07/17 02:45:23;;;;;;;13.93;2.85;;;12.80;99.90;;;;;;5048801;28;20047;-58
2023/07/17 02:47:50;;;;;;;9.40;2.85;;;12.80;99.90;;;;;;5050784;28;20044;-59
2023/07/17 02:50:18;;;;;;;13.77;2.72;;;12.80;99.90;;;;;;5051557;28;20060;-59
2023/07/17 02:52:46;;;;;;;11.38;2.72;;;12.80;99.90;;;;;;5050289;28;20045;-57
2023/07/17 02:55:14;;;;;;;9.85;3.10;;;12.80;99.90;;;;;;5051277;28;20048;-60
2023/07/17 02:57:42;;;;;;;9.93;2.80;;;12.80;99.90;;;;;;5051627;28;20049;-59
2023/07/17 03:00:14;;;;;;;6.13;2.97;;;12.80;99.90;;;;;;5046359;28;20041;-59
2023/07/17 03:02:43;;;;;;;12.60;2.65;;;12.80;99.90;;;;;;5051343;28;20052;-60
2023/07/17 03:05:13;;;;;;;10.43;2.92;;;12.80;99.90;;;;;;5044404;28;20036;-58
2023/07/17 03:07:44;;;;;;;8.02;3.00;;;12.80;99.90;;;;;;5046571;28;20049;-59
2023/07/17 03:10:12;;;;;;;8.02;3.33;;;12.80;99.90;;;;;;5029583;28;20044;-60
2023/07/17 03:12:41;;;;;;;8.40;3.00;;;12.80;99.90;;;;;;5049236;28;20071;-59
2023/07/17 03:15:09;;;;;;;8.30;3.83;;;12.80;99.90;;;;;;5044703;28;20045;-58
2023/07/17 03:17:37;;;;;;;10.85;3.30;;;12.80;99.90;;;;;;5047122;28;20048;-60
2023/07/17 03:20:10;;;;;;;7.65;2.70;;;12.80;99.90;;;;;;5048623;28;20060;-60
2023/07/17 03:22:39;;;;;;;8.85;2.67;;;12.80;99.90;;;;;;5043819;28;20087;-58
2023/07/17 03:25:07;;;;;;;9.43;3.15;;;12.90;99.90;;;;;;5045655;28;20060;-59
2023/07/17 03:27:37;;;;;;;22.95;4.03;;;12.90;99.90;;;;;;5047836;28;20037;-59
2023/07/17 03:30:05;;;;;;;8.93;3.03;;;12.90;99.90;;;;;;5045923;28;20472;-56
2023/07/17 03:32:34;;;;;;;12.60;3.38;;;12.90;99.90;;;;;;5045253;28;20323;-59
2023/07/17 03:35:03;;;;;;;9.60;2.65;;;12.90;99.90;;;;;;5047539;28;20044;-58
2023/07/17 03:37:31;;;;;;;9.05;2.40;;;13.00;99.90;;;;;;5049952;28;20037;-58
2023/07/17 03:39:58;;;;;;;11.38;3.10;;;13.00;99.90;;;;;;5048110;28;20048;-56
2023/07/17 03:42:26;;;;;;;11.75;2.85;;;13.10;99.90;;;;;;5047193;28;20045;-55
2023/07/17 03:44:54;;;;;;;12.38;4.18;;;13.00;99.90;;;;;;5043122;28;20060;-58
2023/07/17 03:47:23;;;;;;;7.32;2.55;;;13.10;99.90;;;;;;5046540;28;20124;-55
2023/07/17 03:49:52;;;;;;;10.43;2.72;;;13.10;99.90;;;;;;5047538;28;20052;-54
2023/07/17 03:52:20;;;;;;;10.43;2.90;;;13.10;99.90;;;;;;5048989;28;20041;-54
2023/07/17 03:54:49;;;;;;;12.20;2.72;;;13.10;99.90;;;;;;5042539;28;20053;-54
2023/07/17 03:57:16;;;;;;;9.13;2.92;;;13.10;99.90;;;;;;5048362;28;20045;-54
2023/07/17 03:59:53;;;;;;;12.40;2.90;;;13.10;99.90;;;;;;5047139;28;20037;-55
2023/07/17 04:02:47;;;;;;;10.60;3.42;;;13.20;99.90;;;;;;5044160;28;20507;-54
2023/07/17 04:05:24;;;;;;;10.43;3.10;;;13.20;99.90;;;;;;5048848;28;20389;-54
2023/07/17 04:07:52;;;;;;;9.90;2.75;;;13.10;99.90;;;;;;5047284;28;20528;-53
2023/07/17 04:10:19;;;;;;;7.82;2.45;;;13.10;99.90;;;;;;5048555;28;20048;-54
2023/07/17 04:12:47;;;;;;;10.95;3.33;;;13.10;99.90;;;;;;5046031;28;20045;-54
2023/07/17 04:15:15;;;;;;;12.85;3.30;;;13.10;99.90;;;;;;5042880;28;20053;-56
2023/07/17 04:17:43;;;;;;;10.98;3.40;;;13.10;99.90;;;;;;5043074;28;20049;-54
2023/07/17 04:20:11;;;;;;;10.18;2.80;;;13.10;99.90;;;;;;5046372;28;20033;-54
2023/07/17 04:22:40;;;;;;;7.93;3.08;;;13.00;99.90;;;;;;5049213;28;20053;-55
2023/07/17 04:25:09;;;;;;;11.25;3.45;;;13.00;99.90;;;;;;5043953;28;20056;-55
2023/07/17 04:27:38;;;;;;;7.18;2.75;;;13.00;99.90;;;;;;5040660;28;20072;-54
2023/07/17 04:30:08;;;;;;;11.13;3.80;;;13.00;99.90;;;;;;5044519;28;20052;-55
2023/07/17 04:32:36;;;;;;;8.60;2.78;;;13.00;99.90;;;;;;5053161;28;20408;-54
2023/07/17 04:35:05;;;;;;;10.27;3.50;;;13.00;99.90;;;;;;5050261;28;20045;-54
2023/07/17 04:37:36;;;;;;;7.80;3.08;;;13.00;99.90;;;;;;5052700;28;20057;-54
2023/07/17 04:40:05;;;;;;;12.65;3.72;;;12.90;99.90;;;;;;5052993;28;20033;-54
2023/07/17 04:42:33;;;;;;;5.07;2.53;;;12.90;99.90;;;;;;5052693;28;20045;-53
2023/07/17 04:45:00;;;;;;;11.73;3.50;;;12.90;99.90;;;;;;5049411;28;20571;-55
2023/07/17 04:47:30;;;;;;;8.63;3.00;;;12.90;99.90;;;;;;5042917;28;20060;-55
2023/07/17 04:49:58;;;;;;;9.50;3.35;;;12.90;99.90;;;;;;5048955;28;20492;-54
2023/07/17 04:52:30;;;;;;;14.48;3.17;;;12.90;99.90;;;;;;5049991;28;20056;-54
2023/07/17 04:54:58;;;;;;;12.32;3.20;;;12.80;99.90;;;;;;5048890;28;20049;-55
2023/07/17 04:57:26;;;;;;;14.30;3.25;;;12.90;99.90;;;;;;5048997;28;20048;-54
2023/07/17 04:59:56;;;;;;;7.88;3.17;;;12.90;99.90;;;;;;5032212;28;20060;-54
2023/07/17 05:02:24;;;;;;;12.02;3.40;;;12.90;99.90;;;;;;5037862;28;20041;-55
2023/07/17 05:04:52;;;;;;;12.13;3.70;;;12.90;99.90;;;;;;5044405;28;20049;-56
2023/07/17 05:07:24;;;;;;;9.40;3.10;;;12.90;99.90;;;;;;5043281;28;20515;-54
2023/07/17 05:09:52;;;;;;;14.68;2.70;;;12.90;99.90;;;;;;5045086;28;20041;-58
2023/07/17 05:12:21;;;;;;;10.15;2.33;;;12.90;99.90;;;;;;5044850;28;20052;-59
2023/07/17 05:14:53;;;;;;;12.75;3.50;;;12.90;99.90;;;;;;5034122;28;20427;-57
2023/07/17 05:17:21;;;;;;;8.48;3.03;;;12.90;99.90;;;;;;5039989;28;20045;-55
2023/07/17 05:19:49;;;;;;;7.55;2.85;;;13.00;99.90;;;;;;5056421;28;20044;-59
2023/07/17 05:22:17;;;;;;;9.95;3.25;;;13.00;99.90;;;;;;5044435;28;20053;-54
2023/07/17 05:24:47;;;;;;;7.47;2.50;;;13.00;99.90;;;;;;5032038;28;20496;-59
2023/07/17 05:27:14;;;;;;;9.55;2.60;;;13.00;99.90;;;;;;5043363;28;20049;-59
2023/07/17 05:29:45;;;;;;;11.52;3.03;;;13.00;99.90;;;;;;5045229;28;20408;-61
2023/07/17 05:32:13;;;;;;;9.98;3.17;;;13.10;99.90;;;;;;5047692;28;20424;-59
2023/07/17 05:34:41;;;;;;;10.13;2.63;;;13.10;99.90;;;;;;5045961;28;20045;-59
2023/07/17 05:37:09;;;;;;;16.52;3.53;;;13.00;99.90;;;;;;5045534;28;20489;-59
2023/07/17 05:39:37;;;;;;;11.23;2.78;;;13.10;99.90;;;;;;5044096;28;20045;-58
2023/07/17 05:42:05;;;;;;;12.35;2.63;;;13.10;99.90;;;;;;5038542;28;20424;-56
2023/07/17 05:44:35;;;;;;;9.90;2.70;;;13.10;99.90;;;;;;5041814;28;20041;-55
2023/07/17 05:47:05;;;;;;;10.32;2.55;;;13.10;99.90;;;;;;5045540;28;20649;-56
2023/07/17 05:49:35;;;;;;;8.10;2.88;;;13.20;99.90;;;;;;5030596;28;20512;-58
2023/07/17 05:52:03;;;;;;;10.77;2.70;;;13.20;99.90;;;;;;5045847;28;20559;-55
2023/07/17 05:54:31;;;;;;;4.57;2.40;;;13.20;99.90;;;;;;5043935;28;20045;-57
2023/07/17 05:56:59;;;;;;;11.27;3.08;;;13.30;99.90;;;;;;5037366;28;20888;-57
2023/07/17 05:59:27;;;;;;;5.68;2.65;;;13.30;99.90;;;;;;5046606;28;20045;-55
2023/07/17 06:01:55;;;;;;;7.18;2.47;;;13.40;99.90;;;;;;5042073;28;20504;-55
2023/07/17 06:04:23;;;;;;;5.55;2.15;;;13.40;99.90;;;;;;5029388;28;20052;-58
2023/07/17 06:06:53;;;;;;;;;;;13.40;99.90;;;;;;5043010;28;20051;-55
2023/07/17 06:09:20;;;;;;;8.57;3.20;;;13.40;99.90;;;;;;5041061;28;20248;-55
2023/07/17 06:11:48;;;;;;;14.15;2.35;;;13.40;99.90;;;;;;5047095;28;20049;-54
2023/07/17 06:14:17;;;;;;;9.77;2.83;;;13.50;99.90;;;;;;5052749;28;20412;-55
2023/07/17 06:16:44;;;;;;;9.20;2.78;;;13.50;99.90;;;;;;5040460;28;20045;-58
2023/07/17 06:19:12;;;;;;;12.77;3.35;;;13.60;99.90;;;;;;5042316;28;20056;-59
2023/07/17 06:21:40;;;;;;;9.18;2.47;;;13.60;99.90;;;;;;5044552;28;20049;-59
2023/07/17 06:24:08;;;;;;;10.73;2.88;;;13.80;99.90;;;;;;5048329;28;20362;-57
2023/07/17 06:26:36;;;;;;;7.63;2.33;;;13.80;99.90;;;;;;5047672;28;20040;-59
2023/07/17 06:29:05;;;;;;;11.10;3.28;;;14.00;99.90;;;;;;5048348;28;20515;-60
2023/07/17 06:31:33;;;;;;;5.77;2.33;;;14.10;99.90;;;;;;5041497;28;20045;-58
2023/07/17 06:34:02;;;;;;;7.25;2.80;;;14.10;99.90;;;;;;5040665;28;20033;-56
2023/07/17 06:36:32;;;;;;;7.80;2.42;;;14.20;99.90;;;;;;5039856;28;20057;-59
2023/07/17 06:39:00;;;;;;;8.20;2.47;;;14.20;99.90;;;;;;5052733;28;20036;-57
2023/07/17 06:41:28;;;;;;;11.07;2.33;;;14.30;99.90;;;;;;5052334;28;20041;-58
2023/07/17 06:43:56;;;;;;;8.95;2.97;;;14.30;99.90;;;;;;5044698;28;20052;-58
2023/07/17 06:46:24;;;;;;;9.13;2.70;;;14.30;99.90;;;;;;5050065;28;20514;-58
2023/07/17 06:48:52;;;;;;;8.23;2.67;;;14.40;99.90;;;;;;5046966;28;20045;-60
2023/07/17 06:51:19;;;;;;;7.18;2.70;;;14.40;99.90;;;;;;5041807;28;20068;-58
2023/07/17 06:53:47;;;;;;;9.02;1.77;;;14.40;99.90;;;;;;5045518;28;20045;-57
2023/07/17 06:56:15;;;;;;;10.52;2.70;;;14.50;99.90;;;;;;5042377;28;20036;-55
2023/07/17 06:58:43;;;;;;;10.57;2.65;;;14.60;99.90;;;;;;5043974;28;20057;-55
2023/07/17 07:01:11;;;;;;;10.90;2.78;;;14.60;99.90;;;;;;5045329;28;20041;-54
2023/07/17 07:03:39;;;;;;;4.65;2.25;;;14.60;99.90;;;;;;5041731;28;20052;-55
2023/07/17 07:06:07;;;;;;;5.18;2.22;;;14.70;99.90;;;;;;5043667;28;20051;-59
2023/07/17 07:08:35;;;;;;;8.70;2.50;;;14.80;99.90;;;;;;5043977;28;20072;-61
2023/07/17 07:11:03;;;;;;;10.30;3.40;;;14.90;99.90;;;;;;5043816;28;20040;-57
2023/07/17 07:13:30;;;;;;;5.82;2.10;;;14.90;99.90;;;;;;5045264;28;20045;-58
2023/07/17 07:15:58;;;;;;;5.30;1.90;;;15.00;99.90;;;;;;5047274;28;20045;-58
2023/07/17 07:18:26;;;;;;;8.57;2.25;;;15.00;99.90;;;;;;5047019;28;20048;-56
2023/07/17 07:20:53;;;;;;;8.73;2.95;;;15.10;99.90;;;;;;5044283;28;20045;-56
2023/07/17 07:23:22;;;;;;;4.95;2.10;;;15.10;99.90;;;;;;5047875;28;20060;-55
2023/07/17 07:25:49;;;;;;;5.13;2.05;;;15.20;99.90;;;;;;5042684;28;20056;-57
2023/07/17 07:28:19;;;;;;;6.72;1.83;;;15.20;99.90;;;;;;5051788;28;20056;-60
2023/07/17 07:30:47;;;;;;;7.93;2.60;;;15.30;99.90;;;;;;5046300;28;20037;-58
2023/07/17 07:33:15;;;;;;;6.13;1.80;;;15.30;99.90;;;;;;5043934;28;20037;-60
2023/07/17 07:35:46;;;;;;;3.78;2.00;;;15.40;99.90;;;;;;5043709;28;20472;-55
2023/07/17 07:38:14;;;;;;;8.80;2.15;;;15.40;99.90;;;;;;5047065;28;20041;-55
2023/07/17 07:40:41;;;;;;;7.47;2.38;;;15.40;99.90;;;;;;5046626;28;20631;-58
2023/07/17 07:43:09;;;;;;;6.85;2.05;;;15.40;99.90;;;;;;5049693;28;20488;-56
2023/07/17 07:45:37;;;;;;;4.90;1.98;;;15.30;99.90;;;;;;5045949;28;20041;-57
2023/07/17 07:48:05;;;;;;;6.32;2.00;;;15.40;99.90;;;;;;5047112;28;20052;-56
2023/07/17 07:50:33;;;;;;;6.70;2.10;;;15.40;99.90;;;;;;5045120;28;20045;-54
2023/07/17 07:53:02;;;;;;;6.75;2.30;;;15.40;99.90;;;;;;5044948;28;20658;-56
2023/07/17 07:55:30;;;;;;;6.75;2.50;;;15.40;99.90;;;;;;5045950;28;20041;-56
2023/07/17 07:57:57;;;;;;;4.55;2.50;;;15.40;99.90;;;;;;5041723;28;20057;-57
2023/07/17 08:00:25;;;;;;;7.28;2.40;;;15.40;99.90;;;;;;5045708;28;20052;-55
2023/07/17 08:02:54;;;;;;;5.68;2.20;;;15.40;99.90;;;;;;5046760;28;20067;-55
2023/07/17 08:05:22;;;;;;;7.50;2.58;;;15.40;99.90;;;;;;5045688;28;20044;-55
2023/07/17 08:07:50;;;;;;;4.65;1.83;;;15.40;99.90;;;;;;5047584;28;20053;-56
2023/07/17 08:10:18;;;;;;;6.10;2.30;;;15.50;99.90;;;;;;5050573;28;20412;-55
2023/07/17 08:12:46;;;;;;;4.90;1.45;;;15.60;99.90;;;;;;5049624;28;20052;-56
2023/07/17 08:15:13;;;;;;;4.15;1.75;;;15.70;99.90;;;;;;5046748;28;20045;-56
2023/07/17 08:17:41;;;;;;;10.95;2.05;;;15.80;99.90;;;;;;5054161;28;20056;-55
2023/07/17 08:20:09;;;;;;;6.90;2.05;;;15.90;99.90;;;;;;5048167;28;20047;-58
2023/07/17 08:22:36;;;;;;;3.60;1.52;;;16.00;99.90;;;;;;5050686;28;20514;-58
2023/07/17 08:25:05;;;;;;;3.42;1.90;;;16.10;99.90;;;;;;5048296;28;20500;-56
2023/07/17 08:27:32;;;;;;;3.90;1.58;;;16.20;99.90;;;;;;5050418;28;20037;-54
2023/07/17 08:30:01;;;;;;;4.28;1.60;;;16.30;99.90;;;;;;5049571;28;20045;-54
2023/07/17 08:32:28;;;;;;;3.83;1.50;;;16.40;99.90;;;;;;5049829;28;20053;-55
2023/07/17 08:34:56;;;;;;;3.15;1.30;;;16.60;99.90;;;;;;5043488;28;20044;-56
2023/07/17 08:37:25;;;;;;;5.18;1.33;;;16.70;99.90;;;;;;5050678;28;20053;-55
2023/07/17 08:39:53;;;;;;;3.55;1.25;;;16.70;99.90;;;;;;5049267;28;20061;-55
2023/07/17 08:42:20;;;;;;;3.38;1.50;;;16.70;99.90;;;;;;5043464;28;20064;-55
2023/07/17 08:44:50;;;;;;;2.45;1.35;;;16.70;99.90;;;;;;5045577;28;20060;-55
2023/07/17 08:47:20;;;;;;;2.15;1.23;;;16.60;99.90;;;;;;5050740;28;20578;-55
2023/07/17 08:49:48;;;;;;;1.47;1.00;;;16.50;99.90;;;;;;5043922;28;20041;-55
2023/07/17 08:52:17;;;;;;;4.57;1.38;;;16.40;99.90;;;;;;5045924;28;20048;-58
2023/07/17 08:54:44;;;;;;;3.42;1.50;;;16.40;99.90;;;;;;5033250;28;20073;-55
2023/07/17 08:57:13;;;;;;;7.28;1.75;;;16.30;99.90;;;;;;5034853;28;20061;-55
2023/07/17 08:59:41;;;;;;;5.97;1.65;;;16.50;99.90;;;;;;5039262;28;20511;-54
2023/07/17 09:02:09;;;;;;;3.63;1.45;;;16.60;99.90;;;;;;5034810;28;20040;-55
2023/07/17 09:04:37;;;;;;;4.15;1.50;;;16.70;99.90;;;;;;5038433;28;20524;-55
2023/07/17 09:07:05;;;;;;;7.07;1.60;;;16.80;99.90;;;;;;5043394;28;20045;-55
2023/07/17 09:09:32;;;;;;;3.63;1.52;;;16.90;99.90;;;;;;5046157;28;20049;-55
2023/07/17 09:12:11;;;;;;;4.72;1.75;;;17.00;99.90;;;;;;5038645;28;20389;-56
2023/07/17 09:14:39;;;;;;;4.10;1.63;;;17.10;99.90;;;;;;5049057;28;20056;-55
2023/07/17 09:17:08;;;;;;;9.55;2.15;;;17.20;99.90;;;;;;5042961;28;20608;-54
2023/07/17 09:19:36;;;;;;;3.75;2.05;;;17.30;99.90;;;;;;5042351;28;20057;-54
2023/07/17 09:22:07;;;;;;;4.97;1.50;;;17.30;99.90;;;;;;5047160;28;20405;-55
2023/07/17 09:24:36;;;;;;;6.45;2.33;;;17.30;99.90;;;;;;5043418;28;20548;-55
2023/07/17 09:27:06;;;;;;;3.33;1.52;;;17.30;99.90;;;;;;5042687;28;20045;-55
2023/07/17 09:29:41;;;;;;;3.50;1.50;;;17.40;99.90;;;;;;5042473;28;20688;-55
2023/07/17 09:32:18;;;;;;;3.05;1.73;;;17.50;99.90;;;;;;5042745;28;20041;-55
2023/07/17 09:34:51;;;;;;;3.38;1.60;;;17.60;99.90;;;;;;5044357;28;20619;-55
2023/07/17 09:37:18;;;;;;;4.00;1.80;;;17.60;99.90;;;;;;5044842;28;20037;-55
2023/07/17 09:39:51;;;;;;;3.83;1.70;;;17.70;99.90;;;;;;5046437;28;20052;-55
2023/07/17 09:42:23;;;;;;;9.85;1.50;;;17.80;99.90;;;;;;5046395;28;20115;-55
2023/07/17 09:44:52;;;;;;;2.58;1.40;;;18.00;99.90;;;;;;5046357;28;20053;-55
2023/07/17 09:47:20;;;;;;;3.80;1.20;;;18.20;99.90;;;;;;5048159;28;20116;-55
2023/07/17 09:49:50;;;;;;;1.90;1.38;;;18.50;99.90;;;;;;5043459;28;20053;-54
2023/07/17 09:52:18;;;;;;;4.60;1.38;;;18.70;99.90;;;;;;5039438;28;20037;-55
2023/07/17 09:54:49;;;;;;;3.22;0.90;;;19.00;99.90;;;;;;5044591;28;20052;-55
2023/07/17 09:57:30;;;;;;;2.05;1.02;;;19.20;99.90;;;;;;5043644;28;20049;-58
2023/07/17 10:00:03;;;;;;;3.10;2.10;;;19.10;99.90;;;;;;5047082;28;20049;-59
2023/07/17 10:02:39;;;;;;;1.65;1.08;;;18.70;99.90;;;;;;5046719;28;20044;-55
2023/07/17 10:05:07;;;;;;;3.20;1.30;;;18.30;99.90;;;;;;5041191;28;20041;-55
2023/07/17 10:07:37;;;;;;;2.17;1.30;;;17.90;99.90;;;;;;5037774;28;20056;-55
2023/07/17 10:10:05;;;;;;;1.95;0.70;;;17.40;99.90;;;;;;5037848;28;20619;-55
2023/07/17 10:12:35;;;;;;;;;;;17.00;99.90;;;;;;5038236;28;20614;-55
2023/07/17 10:15:04;;;;;;;3.38;1.00;;;16.80;99.90;;;;;;5045262;28;19928;-55
2023/07/17 10:17:34;;;;;;;3.08;1.15;;;16.50;99.90;;;;;;5040039;28;20511;-55
2023/07/17 10:20:03;;;;;;;;;;;16.30;99.90;;;;;;5042176;28;20041;-55
2023/07/17 10:22:38;;;;;;;1.80;1.00;;;16.30;99.90;;;;;;5043325;28;19929;-55
2023/07/17 10:25:18;;;;;;;4.15;1.20;;;16.30;99.90;;;;;;5045051;28;20040;-57
2023/07/17 10:27:52;;;;;;;4.82;1.38;;;16.40;99.90;;;;;;5044626;28;20056;-55
2023/07/17 10:30:23;;;;;;;2.72;1.30;;;16.40;99.90;;;;;;5045149;28;20048;-59
2023/07/17 10:33:13;;;;;;;3.22;1.45;;;16.40;99.90;;;;;;5044909;28;20042;-59
2023/07/17 10:35:45;;;;;;;7.68;1.50;;;16.50;99.90;;;;;;5039647;28;20053;-58
2023/07/17 10:38:14;;;;;;;4.97;1.48;;;16.30;99.90;;;;;;5042584;28;20041;-60
2023/07/17 10:40:42;;;;;;;3.65;0.98;;;16.00;99.90;;;;;;5041133;28;20071;-59
2023/07/17 10:43:14;;;;;;;1.98;0.65;;;15.70;99.90;;;;;;5043324;28;20033;-58
2023/07/17 10:45:43;;;;;;;2.88;0.55;;;15.50;99.90;;;;;;5043503;28;20045;-58
2023/07/17 10:48:11;;;;;;;2.13;0.60;;;15.20;99.90;;;;;;5048706;28;20044;-59
2023/07/17 10:50:57;;;;;;;3.70;0.55;;;15.10;99.90;;;;;;5046246;28;20044;-60
2023/07/17 10:53:24;;;;;;;2.83;0.88;;;14.90;99.90;;;;;;5042864;28;20053;-59
2023/07/17 10:55:53;;;;;;;1.40;0.70;;;14.90;99.90;;;;;;5045446;28;20048;-56
2023/07/17 10:58:21;;;;;;;2.00;1.17;;;14.90;99.90;;;;;;5042535;28;20037;-55
2023/07/17 11:00:49;;;;;;;2.70;1.52;;;15.00;99.90;;;;;;5042469;28;20055;-56
2023/07/17 11:03:20;;;;;;;1.63;0.90;;;15.20;99.90;;;;;;5045850;28;20052;-54
2023/07/17 11:05:48;;;;;;;2.15;0.80;;;15.30;99.90;;;;;;5034621;28;20392;-54
2023/07/17 11:08:16;;;;;;;1.25;0.70;;;15.40;99.90;;;;;;5028847;28;20050;-56
2023/07/17 11:10:44;;;;;;;2.08;0.90;;;15.40;99.90;;;;;;5032816;28;20040;-54
2023/07/17 11:13:12;;;;;;;5.28;0.90;;;15.40;99.90;;;;;;5041013;28;20044;-54
2023/07/17 11:15:40;;;;;;;3.67;1.30;;;15.40;99.90;;;;;;5040081;28;20416;-54
2023/07/17 11:18:10;;;;;;;6.38;1.30;;;15.30;99.90;;;;;;5043694;28;20052;-55
2023/07/17 11:20:39;;;;;;;1.73;1.13;;;15.30;99.90;;;;;;5039742;28;20230;-54
2023/07/17 11:23:10;;;;;;;5.38;1.38;;;15.40;99.90;;;;;;5042087;28;20048;-54
2023/07/17 11:25:39;;;;;;;2.53;1.10;;;15.50;99.90;;;;;;5044907;28;20064;-53
2023/07/17 11:28:06;;;;;;;1.63;0.88;;;15.70;99.90;;;;;;5044599;28;20052;-54
2023/07/17 11:30:35;;;;;;;3.33;1.00;;;15.90;99.90;;;;;;5041228;28;20036;-55
2023/07/17 11:33:05;;;;;;;3.00;0.60;;;16.10;99.90;;;;;;5042224;28;20407;-54
2023/07/17 11:35:41;;;;;;;2.47;0.73;;;16.20;99.90;;;;;;5042819;28;20388;-54
2023/07/17 11:38:12;;;;;;;3.95;0.73;;;16.20;99.90;;;;;;5040572;28;20048;-54
2023/07/17 11:40:59;;;;;;;1.98;0.80;;;16.20;99.90;;;;;;5039974;28;20404;-54
2023/07/17 11:43:32;;;;;;;3.83;0.95;;;16.30;99.90;;;;;;5047813;28;20476;-55
2023/07/17 11:46:02;;;;;;;2.08;0.93;;;16.30;99.90;;;;;;5035283;28;20052;-54
2023/07/17 11:48:32;;;;;;;3.67;1.45;;;16.30;99.90;;;;;;5036623;28;20045;-55
2023/07/17 11:51:04;;;;;;;3.92;1.60;;;16.40;99.90;;;;;;5040504;28;20045;-54
2023/07/17 11:53:35;;;;;;;4.97;1.98;;;16.30;99.90;;;;;;5039694;28;20057;-54
2023/07/17 11:56:04;;;;;;;8.43;1.80;;;16.30;99.90;;;;;;5038187;28;20037;-54
2023/07/17 11:58:35;;;;;;;4.55;1.80;;;16.40;99.90;;;;;;5045399;28;20056;-54
2023/07/17 12:01:07;;;;;;;3.15;1.80;;;16.40;99.90;;;;;;5040487;28;20049;-55
2023/07/17 12:03:36;;;;;;;4.63;1.80;;;16.60;99.90;;;;;;5042946;28;20056;-54
2023/07/17 12:06:04;;;;;;;3.28;1.98;;;17.00;99.90;;;;;;5044967;28;20041;-55
2023/07/17 12:08:31;;;;;;;2.30;1.40;;;17.60;99.90;;;;;;5043199;28;20048;-54
2023/07/17 12:10:59;;;;;;;3.63;1.35;;;17.90;99.90;;;;;;5047059;28;20510;-54
2023/07/17 12:13:26;;;;;;;2.60;1.15;;;18.10;99.90;;;;;;5045832;28;20049;-54
2023/07/17 12:15:54;;;;;;;2.67;1.63;;;18.10;99.90;;;;;;5042771;28;20048;-54
2023/07/17 12:18:22;;;;;;;4.20;1.20;;;18.00;99.90;;;;;;5051098;28;20408;-55
2023/07/17 12:20:49;;;;;;;3.15;1.45;;;17.90;99.90;;;;;;5045808;28;20762;-55
2023/07/17 12:23:18;;;;;;;2.22;1.30;;;17.90;99.90;;;;;;5030396;28;20484;-55
2023/07/17 12:25:46;;;;;;;2.08;1.35;;;18.40;99.90;;;;;;5042457;28;20554;-54
2023/07/17 12:28:14;;;;;;;3.28;1.73;;;18.50;99.90;;;;;;5047310;28;20052;-55
2023/07/17 12:30:42;;;;;;;3.53;1.70;;;18.60;99.90;;;;;;5046680;28;20485;-54
2023/07/17 12:33:10;;;;;;;3.95;1.80;;;18.40;99.90;;;;;;5044850;28;20041;-55
2023/07/17 12:35:37;;;;;;;2.97;1.20;;;18.40;99.90;;;;;;5038846;28;20037;-54
2023/07/17 12:38:05;;;;;;;2.33;1.27;;;18.30;99.90;;;;;;5038151;28;20049;-54
2023/07/17 12:40:33;;;;;;;5.10;1.73;;;18.40;99.90;;;;;;5044043;28;20041;-54
2023/07/17 12:43:01;;;;;;;2.47;1.20;;;18.80;99.90;;;;;;5047650;28;20045;-55
2023/07/17 12:45:28;;;;;;;3.70;1.23;;;19.20;99.90;;;;;;5041097;28;20040;-55
2023/07/17 12:47:59;;;;;;;3.38;1.20;;;19.40;99.90;;;;;;5047194;28;20041;-55
2023/07/17 12:50:27;;;;;;;2.63;1.38;;;19.50;99.90;;;;;;5045259;28;20041;-54
2023/07/17 12:52:54;;;;;;;3.05;1.70;;;19.20;99.90;;;;;;5049588;28;20425;-55
2023/07/17 12:55:22;;;;;;;2.42;1.25;;;18.90;99.90;;;;;;5045443;28;20056;-55